Details From SBPK - Pelotas
To SBPA - Salgado Filho
Flight Number -
Tags Routegen Generated
Created
Modified
Stats Distance 123 nm / 228 km
Max Altitude 400 ft / 122 m
Waypoints 9
Social Downloads 13
Likes 0
Share VATSIM

Download

Looking for another format? Having issues loading an existing format? Contact us
Advertisement - Login to hide

Notes

Departing runway 5 SBPK. Arriving runway 9 SBPA.

Route

SBPK -31.67_-052.25 -31.62_-052.22 -31.01_-051.89 -30.10_-051.42 -30.05_-051.38 -30.01_-051.33 -29.99_-051.27 SBPA

ID Type Via Altitude Latitude Longitude Leg Dist Tot Dist Heading (true) Name
O SBPK APT - 0 ft / 0 m -31.71282˚ -52.31959˚ - 0 nm - -
-31.67_-052.25 LATLON - 400 ft / 122 m -31.66741˚ -52.25337˚ 4 nm 4 nm 51° / 51° -
-31.62_-052.22 LATLON - 400 ft / 122 m -31.61786˚ -52.21821˚ 3 nm 7 nm 31° / 31° -
-31.01_-051.89 LATLON - 400 ft / 122 m -31.00890˚ -51.89354˚ 40 nm 48 nm 25° / 24° -
-30.10_-051.42 LATLON - 400 ft / 122 m -30.09564˚ -51.41769˚ 60 nm 108 nm 24° / 24° -
-30.05_-051.38 LATLON - 400 ft / 122 m -30.04633˚ -51.38263˚ 3 nm 111 nm 32° / 32° -
-30.01_-051.33 LATLON - 400 ft / 122 m -30.01037˚ -51.33023˚ 3 nm 115 nm 52° / 52° -
-29.99_-051.27 LATLON - 400 ft / 122 m -29.99211˚ -51.26679˚ 3 nm 118 nm 72° / 72° -
O SBPA APT - 0 ft / 0 m -29.99414˚ -51.18327˚ 4 nm 122 nm 92° / 92° -

Altitude Profile

Advertisement - Login to hide

SBPK

Details ICAO SBPK (PET)
Name Pelotas
Region Brazil
Timezone America/Sao_Paulo (UTC-2.0)
Stats Elevation 59 ft / 18 m (AMSL)
Location -31.720428° -52.327334°
Runways 2
Magnetic Variation 15.317° W

METAR

SBPK 181100Z 13009KT 9999 BKN040 19/10 Q1022

Decode

TAF

Not found

Departure Runways

ID Width Length Bearing (true) Bearing (mag) Surface Threshold Offset Overrun Length
06 138 ft / 42 m 6,501 ft / 1,982 m 51.16° 66.48° Concrete 0 ft / 0 m 0 ft / 0 m
15 138 ft / 42 m 4,050 ft / 1,234 m 142.34° 157.66° Grass 0 ft / 0 m 0 ft / 0 m
24 138 ft / 42 m 6,501 ft / 1,982 m 231.15° 246.47° Concrete 0 ft / 0 m 0 ft / 0 m
33 138 ft / 42 m 4,050 ft / 1,234 m 322.34° 337.66° Grass 0 ft / 0 m 0 ft / 0 m

SBPA

Details ICAO SBPA (POA)
Name Salgado Filho
Region Brazil
Timezone America/Sao_Paulo (UTC-2.0)
Stats Elevation 11 ft / 3 m (AMSL)
Location -29.994428° -51.171426°
Runways 1
Magnetic Variation 16.880° W

METAR

SBPA 181100Z 13009KT 100V160 9999 SCT015 BKN040 20/14 Q1021

Decode

TAF

Not found

Destination Runways

ID Width Length Bearing (true) Bearing (mag) Surface Threshold Offset Overrun Length
11 138 ft / 42 m 7,487 ft / 2,282 m 91.60° 108.48° Asphalt 0 ft / 0 m 230 ft / 70 m
29 138 ft / 42 m 7,487 ft / 2,282 m 271.59° 288.47° Asphalt 0 ft / 0 m 197 ft / 60 m

Approach Navaids

Runway Type Ident Frequency Range Bearing (true) Bearing (mag) Slope Elevation
11 Localiser IPA 110.30 MHz 18 nm / 33 km 90.92° 107.80° - 11 ft / 3 m (AMSL)
11 Glidescope IPA 110.30 MHz 10 nm / 19 km 91.60° 108.48° 3.00° 11 ft / 3 m (AMSL)

Popular Alternatives